Time;durP1;ratioP1;P1;durP2;ratioP2;P2;SDS_P1;SDS_P2;PMS_P1;PMS_P2;Temp;Humidity;BMP_temperature;BMP_pressure;BME280_temperature;BME280_humidity;BME280_pressure;Samples;Min_cycle;Max_cycle;Signal;HPM_P1;HPM_P2
2022/08/01 00:01:56;;;;;;;21.80;17.02;;;18.50;99.90;;;;;;5005926;28;20045;-74
2022/08/01 00:04:22;;;;;;;45.90;22.70;;;18.50;99.90;;;;;;4989938;28;20045;-75
2022/08/01 00:06:48;;;;;;;36.38;18.02;;;18.50;99.90;;;;;;4988211;28;20041;-75
2022/08/01 00:09:14;;;;;;;42.78;22.33;;;18.50;99.90;;;;;;4971595;28;20440;-75
2022/08/01 00:11:41;;;;;;;24.05;17.55;;;18.50;99.90;;;;;;4996367;28;20041;-76
2022/08/01 00:14:10;;;;;;;37.60;20.48;;;18.50;99.90;;;;;;5018520;28;20063;-75
2022/08/01 00:16:37;;;;;;;23.73;16.65;;;18.40;99.90;;;;;;5008835;28;20382;-74
2022/08/01 00:19:03;;;;;;;25.40;18.00;;;18.50;99.90;;;;;;4997642;28;20064;-75
2022/08/01 00:21:32;;;;;;;46.75;22.05;;;18.50;99.90;;;;;;4993701;28;20252;-75
2022/08/01 00:23:59;;;;;;;54.30;22.58;;;18.50;99.90;;;;;;4999007;28;20133;-75
2022/08/01 00:26:27;;;;;;;30.85;18.05;;;18.50;99.90;;;;;;5012567;28;20040;-75
2022/08/01 00:28:53;;;;;;;51.17;19.35;;;18.50;99.90;;;;;;4999253;28;20041;-76
2022/08/01 00:31:19;;;;;;;33.65;19.73;;;18.40;99.90;;;;;;5022112;28;20064;-75
2022/08/01 00:33:45;;;;;;;18.65;14.88;;;18.50;99.90;;;;;;5010903;28;20052;-75
2022/08/01 00:36:10;;;;;;;17.38;13.98;;;18.40;99.90;;;;;;4997166;28;20100;-76
2022/08/01 00:38:39;;;;;;;67.30;23.02;;;18.40;99.90;;;;;;4998584;28;20087;-75
2022/08/01 00:41:05;;;;;;;17.23;13.30;;;18.40;99.90;;;;;;4992736;28;20042;-75
2022/08/01 00:43:31;;;;;;;21.55;15.38;;;18.50;99.90;;;;;;4993693;28;20034;-76
2022/08/01 00:45:56;;;;;;;36.95;17.30;;;18.40;99.90;;;;;;5028772;28;20095;-76
2022/08/01 00:48:22;;;;;;;26.02;15.75;;;18.40;99.90;;;;;;4966282;28;20042;-76
2022/08/01 00:50:49;;;;;;;23.15;14.45;;;18.40;99.90;;;;;;4992603;28;20052;-76
2022/08/01 00:53:18;;;;;;;17.00;12.77;;;18.40;99.90;;;;;;4975973;28;20400;-76
2022/08/01 00:55:43;;;;;;;16.55;12.52;;;18.40;99.90;;;;;;4999155;28;20066;-76
2022/08/01 00:58:09;;;;;;;14.90;11.70;;;18.40;99.90;;;;;;5014219;28;20135;-75
2022/08/01 01:00:36;;;;;;;36.65;17.25;;;18.40;99.90;;;;;;4992918;28;20404;-76
2022/08/01 01:03:02;;;;;;;17.45;12.88;;;18.40;99.90;;;;;;5016891;28;20128;-75
2022/08/01 01:05:28;;;;;;;15.68;13.05;;;18.40;99.90;;;;;;4995984;28;20125;-75
2022/08/01 01:08:01;;;;;;;68.35;20.00;;;18.40;99.90;;;;;;5004523;28;20124;-76
2022/08/01 01:10:30;;;;;;;18.38;12.80;;;18.40;99.90;;;;;;5001057;28;20049;-75
2022/08/01 01:13:16;;;;;;;17.58;13.15;;;18.40;99.90;;;;;;5012963;28;20132;-76
2022/08/01 01:15:45;;;;;;;15.27;12.65;;;18.40;99.90;;;;;;5029357;28;20093;-76
2022/08/01 01:18:27;;;;;;;33.50;17.10;;;18.40;99.90;;;;;;5013042;28;20180;-76
2022/08/01 01:21:12;;;;;;;22.75;14.18;;;18.40;99.90;;;;;;5011366;28;20120;-78
2022/08/01 01:23:59;;;;;;;17.13;10.40;;;18.30;99.90;;;;;;5010298;28;20050;-77
2022/08/01 01:26:55;;;;;;;13.40;9.00;;;18.30;99.90;;;;;;4984379;28;20527;-78
2022/08/01 01:29:30;;;;;;;11.45;8.65;;;18.20;99.90;;;;;;5027000;28;20053;-77
2022/08/01 01:32:12;;;;;;;28.98;11.68;;;18.20;99.90;;;;;;5006164;28;20048;-76
2022/08/01 01:34:42;;;;;;;10.20;7.10;;;18.20;99.90;;;;;;5005041;28;20488;-77
2022/08/01 01:37:15;;;;;;;12.30;7.45;;;18.20;99.90;;;;;;5010720;28;20046;-77
2022/08/01 01:39:42;;;;;;;9.23;5.88;;;18.20;99.90;;;;;;5011824;28;20515;-77
2022/08/01 01:42:09;;;;;;;9.75;5.65;;;18.20;99.90;;;;;;4982540;28;20140;-77
2022/08/01 01:44:37;;;;;;;6.07;4.43;;;18.10;99.90;;;;;;5015069;28;20496;-77
2022/08/01 01:47:04;;;;;;;9.52;4.95;;;18.10;99.90;;;;;;5012537;28;20084;-77
2022/08/01 01:49:31;;;;;;;11.82;6.20;;;18.00;99.90;;;;;;4980694;28;20045;-77
2022/08/01 01:51:58;;;;;;;5.97;3.88;;;18.10;99.90;;;;;;5018564;28;20505;-77
2022/08/01 01:54:29;;;;;;;12.00;5.97;;;18.10;99.90;;;;;;4987593;28;20042;-77
2022/08/01 01:56:59;;;;;;;6.20;4.60;;;18.00;99.90;;;;;;5004353;28;20068;-77
2022/08/01 01:59:29;;;;;;;9.88;5.53;;;18.00;99.90;;;;;;5015440;28;20049;-77
2022/08/01 02:01:57;;;;;;;10.95;6.18;;;18.00;99.90;;;;;;5011334;28;20809;-77
2022/08/01 02:04:25;;;;;;;12.52;7.63;;;18.00;99.90;;;;;;5001561;28;20088;-77
2022/08/01 02:06:56;;;;;;;8.52;6.03;;;18.10;99.90;;;;;;4999018;28;20045;-76
2022/08/01 02:09:24;;;;;;;10.80;7.10;;;18.00;99.90;;;;;;5009613;28;20042;-77
2022/08/01 02:11:51;;;;;;;6.63;5.45;;;18.00;99.90;;;;;;4993224;28;20069;-77
2022/08/01 02:14:18;;;;;;;12.55;7.55;;;18.00;99.90;;;;;;5008621;28;20053;-77
2022/08/01 02:16:48;;;;;;;11.55;7.60;;;18.00;99.90;;;;;;4994654;28;20520;-77
2022/08/01 02:19:16;;;;;;;7.30;6.22;;;18.00;99.90;;;;;;5025155;28;20061;-77
2022/08/01 02:21:51;;;;;;;8.20;7.25;;;18.00;99.90;;;;;;5020117;28;20068;-78
2022/08/01 02:24:21;;;;;;;13.85;8.73;;;18.00;99.90;;;;;;5017476;28;20049;-77
2022/08/01 02:26:50;;;;;;;6.57;5.78;;;17.90;99.90;;;;;;5001026;28;20080;-77
2022/08/01 02:29:29;;;;;;;15.85;9.32;;;17.90;99.90;;;;;;5017084;28;20053;-77
2022/08/01 02:31:56;;;;;;;7.43;5.93;;;17.90;99.90;;;;;;5009261;28;20104;-77
2022/08/01 02:34:23;;;;;;;11.77;8.00;;;17.90;99.90;;;;;;4984914;28;20255;-77
2022/08/01 02:36:51;;;;;;;24.33;11.55;;;18.00;99.90;;;;;;5013224;28;20045;-77
2022/08/01 02:39:19;;;;;;;8.93;6.03;;;17.90;99.90;;;;;;5015229;28;20045;-76
2022/08/01 02:41:49;;;;;;;10.35;8.15;;;18.00;99.90;;;;;;5012438;28;20041;-77
2022/08/01 02:44:26;;;;;;;9.27;5.20;;;17.90;99.90;;;;;;5015853;28;20058;-78
2022/08/01 02:46:57;;;;;;;8.43;3.83;;;17.90;99.90;;;;;;5011428;28;20096;-77
2022/08/01 02:49:25;;;;;;;8.82;4.63;;;17.80;99.90;;;;;;4997243;28;20045;-77
2022/08/01 02:51:54;;;;;;;7.68;4.22;;;17.80;99.90;;;;;;5005513;28;20048;-77
2022/08/01 02:54:22;;;;;;;9.45;3.92;;;17.70;99.90;;;;;;5014415;28;20042;-77
2022/08/01 02:56:50;;;;;;;8.13;3.83;;;17.70;99.90;;;;;;4984318;28;20045;-80
2022/08/01 02:59:20;;;;;;;11.02;5.45;;;17.60;99.90;;;;;;4997348;28;20050;-76
2022/08/01 03:01:51;;;;;;;10.18;4.50;;;17.60;99.90;;;;;;5023495;28;20041;-76
2022/08/01 03:04:18;;;;;;;9.35;4.40;;;17.60;99.90;;;;;;5010513;28;20128;-78
2022/08/01 03:06:45;;;;;;;11.43;5.47;;;17.60;99.90;;;;;;4996012;28;20048;-76
2022/08/01 03:09:12;;;;;;;9.55;4.43;;;17.60;99.90;;;;;;5012332;28;20093;-77
2022/08/01 03:11:41;;;;;;;10.25;4.30;;;17.60;99.90;;;;;;5003008;28;20076;-76
2022/08/01 03:14:10;;;;;;;7.25;3.92;;;17.50;99.90;;;;;;5008395;28;20050;-76
2022/08/01 03:16:38;;;;;;;10.90;5.13;;;17.50;99.90;;;;;;4997689;28;20056;-76
2022/08/01 03:19:06;;;;;;;9.93;3.70;;;17.50;99.90;;;;;;5003408;28;20063;-76
2022/08/01 03:21:34;;;;;;;8.38;4.00;;;17.50;99.90;;;;;;5016338;28;20381;-76
2022/08/01 03:24:01;;;;;;;8.77;3.72;;;17.50;99.90;;;;;;5017389;28;20149;-76
2022/08/01 03:26:30;;;;;;;8.02;5.40;;;17.50;99.90;;;;;;5013521;28;20046;-76
2022/08/01 03:28:59;;;;;;;9.75;4.03;;;17.50;99.90;;;;;;4997351;28;20049;-76
2022/08/01 03:31:26;;;;;;;9.90;4.30;;;17.50;99.90;;;;;;5011063;28;20048;-77
2022/08/01 03:33:55;;;;;;;10.23;4.00;;;17.50;99.90;;;;;;5002567;28;20072;-76
2022/08/01 03:36:25;;;;;;;8.13;3.42;;;17.40;99.90;;;;;;5011956;28;20042;-75
2022/08/01 03:38:55;;;;;;;;;;;17.40;99.90;;;;;;5019802;28;20054;-76
2022/08/01 03:41:23;;;;;;;8.80;3.92;;;17.40;99.90;;;;;;5002012;28;20888;-76
2022/08/01 03:43:58;;;;;;;8.82;3.88;;;17.40;99.90;;;;;;5007102;28;20052;-75
2022/08/01 03:46:46;;;;;;;7.68;4.05;;;17.40;99.90;;;;;;5013653;28;20597;-75
2022/08/01 03:49:18;;;;;;;8.90;4.40;;;17.30;99.90;;;;;;5016589;28;20138;-76
2022/08/01 03:51:49;;;;;;;12.98;4.95;;;17.30;99.90;;;;;;4999251;28;20119;-76
2022/08/01 03:54:20;;;;;;;9.93;4.20;;;17.30;99.90;;;;;;5034880;28;20053;-76
2022/08/01 03:56:48;;;;;;;12.80;5.47;;;17.30;99.90;;;;;;5022493;28;20048;-75
2022/08/01 03:59:16;;;;;;;12.30;4.43;;;17.30;99.90;;;;;;5030473;28;20555;-75
2022/08/01 04:01:42;;;;;;;13.45;6.13;;;17.30;99.90;;;;;;5017266;28;20092;-75
2022/08/01 04:04:08;;;;;;;11.40;4.72;;;17.30;99.90;;;;;;5019911;28;20046;-75
2022/08/01 04:06:38;;;;;;;11.90;4.45;;;17.30;99.90;;;;;;5019124;28;20040;-75
2022/08/01 04:09:07;;;;;;;10.40;5.00;;;17.30;99.90;;;;;;5002031;28;20064;-77
2022/08/01 04:11:33;;;;;;;11.07;4.15;;;17.20;99.90;;;;;;5024032;28;20484;-76
2022/08/01 04:13:59;;;;;;;12.45;4.63;;;17.20;99.90;;;;;;5022588;28;20037;-76
2022/08/01 04:16:25;;;;;;;14.23;4.65;;;17.20;99.90;;;;;;4990944;28;20400;-75
2022/08/01 04:18:51;;;;;;;11.23;4.97;;;17.20;99.90;;;;;;5011846;28;20046;-76
2022/08/01 04:21:23;;;;;;;12.45;5.25;;;17.20;99.90;;;;;;4992930;28;20060;-75
2022/08/01 04:23:51;;;;;;;17.65;6.43;;;17.20;99.90;;;;;;5007294;28;20054;-76
2022/08/01 04:26:19;;;;;;;10.98;4.57;;;17.20;99.90;;;;;;4998967;28;20134;-75
2022/08/01 04:28:46;;;;;;;16.58;7.75;;;17.20;99.90;;;;;;5023317;28;20105;-76
2022/08/01 04:31:15;;;;;;;12.05;6.25;;;17.20;99.90;;;;;;5002168;28;20053;-76
2022/08/01 04:33:45;;;;;;;16.63;6.70;;;17.20;99.90;;;;;;4983164;28;20042;-75
2022/08/01 04:36:12;;;;;;;11.48;5.22;;;17.30;99.90;;;;;;5017805;28;20880;-75
2022/08/01 04:38:40;;;;;;;12.85;5.00;;;17.20;99.90;;;;;;5017837;28;20547;-75
2022/08/01 04:41:09;;;;;;;16.92;6.13;;;17.20;99.90;;;;;;5018108;28;20064;-76
2022/08/01 04:43:39;;;;;;;16.80;6.43;;;17.20;99.90;;;;;;5019116;28;20048;-76
2022/08/01 04:46:06;;;;;;;12.13;5.57;;;17.20;99.90;;;;;;5023578;28;20037;-76
2022/08/01 04:48:36;;;;;;;15.60;5.60;;;17.20;99.90;;;;;;5019113;28;20416;-76
2022/08/01 04:51:03;;;;;;;11.90;4.93;;;17.20;99.90;;;;;;5023929;28;20080;-75
2022/08/01 04:53:29;;;;;;;9.60;4.70;;;17.10;99.90;;;;;;5021203;28;20145;-76
2022/08/01 04:55:55;;;;;;;15.52;5.68;;;17.10;99.90;;;;;;5009994;28;20452;-78
2022/08/01 04:58:21;;;;;;;13.23;5.53;;;17.10;99.90;;;;;;5020991;28;20050;-76
2022/08/01 05:00:47;;;;;;;14.05;5.53;;;17.10;99.90;;;;;;5013490;28;20041;-78
2022/08/01 05:03:16;;;;;;;14.05;5.20;;;17.00;99.90;;;;;;5013575;28;20061;-79
2022/08/01 05:05:42;;;;;;;14.00;5.00;;;17.00;99.90;;;;;;5004263;28;20069;-77
2022/08/01 05:08:07;;;;;;;14.40;5.35;;;17.00;99.90;;;;;;4988028;28;20073;-77
2022/08/01 05:10:33;;;;;;;15.38;4.97;;;17.00;99.90;;;;;;4988957;28;20037;-80
2022/08/01 05:12:59;;;;;;;14.10;5.07;;;17.00;99.90;;;;;;5006269;28;20034;-77
2022/08/01 05:15:25;;;;;;;14.18;5.30;;;17.00;99.90;;;;;;5020689;28;20405;-77
2022/08/01 05:17:51;;;;;;;14.52;5.30;;;17.00;99.90;;;;;;5001996;28;20068;-79
2022/08/01 05:20:16;;;;;;;11.95;4.55;;;17.00;99.90;;;;;;5006624;28;20060;-77
2022/08/01 05:22:42;;;;;;;11.65;5.00;;;16.90;99.90;;;;;;5028134;28;20064;-78
2022/08/01 05:25:08;;;;;;;11.20;4.22;;;16.90;99.90;;;;;;5005033;28;20080;-78
2022/08/01 05:27:39;;;;;;;9.65;4.13;;;16.90;99.90;;;;;;5007893;28;20100;-78
2022/08/01 05:30:07;;;;;;;20.77;5.10;;;16.90;99.90;;;;;;5012144;28;20052;-77
2022/08/01 05:32:33;;;;;;;12.02;4.82;;;16.90;99.90;;;;;;5025950;28;20049;-77
2022/08/01 05:34:59;;;;;;;12.15;5.40;;;16.90;99.90;;;;;;5022800;28;20562;-77
2022/08/01 05:37:25;;;;;;;13.70;5.13;;;16.90;99.90;;;;;;5020799;28;20045;-77
2022/08/01 05:39:51;;;;;;;13.50;5.72;;;16.90;99.90;;;;;;5010534;28;20037;-77
2022/08/01 05:42:16;;;;;;;10.63;4.40;;;16.90;99.90;;;;;;5023365;28;20062;-76
2022/08/01 05:44:42;;;;;;;11.70;4.60;;;16.90;99.90;;;;;;5027043;28;20085;-77
2022/08/01 05:47:11;;;;;;;15.95;5.95;;;17.00;99.90;;;;;;5006645;28;20482;-77
2022/08/01 05:49:37;;;;;;;12.87;5.30;;;17.00;99.90;;;;;;5018374;28;20044;-76
2022/08/01 05:52:04;;;;;;;15.93;5.80;;;17.00;99.90;;;;;;5027627;28;20033;-76
2022/08/01 05:54:31;;;;;;;14.60;4.97;;;17.00;99.90;;;;;;5009320;28;20136;-75
2022/08/01 05:56:59;;;;;;;15.82;5.63;;;17.00;99.90;;;;;;5014315;28;20051;-78
2022/08/01 05:59:25;;;;;;;12.30;4.72;;;17.00;99.90;;;;;;5009278;28;20053;-78
2022/08/01 06:01:51;;;;;;;11.13;4.63;;;17.10;99.90;;;;;;5027686;28;20037;-79
2022/08/01 06:04:17;;;;;;;15.10;4.80;;;17.00;99.90;;;;;;5002643;28;20072;-79
2022/08/01 06:06:43;;;;;;;12.55;6.03;;;17.00;99.90;;;;;;5026459;28;20046;-77
2022/08/01 06:09:09;;;;;;;12.43;4.90;;;17.10;99.90;;;;;;5022824;28;20106;-79
2022/08/01 06:11:35;;;;;;;9.98;4.65;;;17.10;99.90;;;;;;5021543;28;20451;-78
2022/08/01 06:14:01;;;;;;;12.98;4.90;;;17.00;99.90;;;;;;5021151;28;20103;-78
2022/08/01 06:16:26;;;;;;;11.85;4.53;;;17.00;99.90;;;;;;5020431;28;20041;-78
2022/08/01 06:18:55;;;;;;;15.73;5.93;;;17.00;99.90;;;;;;5020987;28;20038;-79
2022/08/01 06:21:21;;;;;;;16.33;6.28;;;17.00;99.90;;;;;;5009283;28;20536;-79
2022/08/01 06:23:47;;;;;;;13.75;4.75;;;17.00;99.90;;;;;;5004569;28;20049;-78
2022/08/01 06:26:13;;;;;;;16.13;4.78;;;17.00;99.90;;;;;;4998810;28;20042;-76
2022/08/01 06:28:39;;;;;;;12.02;4.10;;;17.00;99.90;;;;;;5024577;28;20052;-76
2022/08/01 06:31:05;;;;;;;18.52;5.00;;;17.00;99.90;;;;;;5006169;28;20039;-79
2022/08/01 06:33:31;;;;;;;16.98;4.75;;;16.90;99.90;;;;;;4990760;28;20076;-77
2022/08/01 06:35:57;;;;;;;22.73;5.45;;;16.90;99.90;;;;;;5025524;28;20037;-79
2022/08/01 06:38:26;;;;;;;18.73;5.38;;;16.90;99.90;;;;;;5025777;28;20051;-79
2022/08/01 06:40:51;;;;;;;20.40;5.00;;;16.90;99.90;;;;;;4993314;28;20048;-79
2022/08/01 06:43:19;;;;;;;18.98;5.60;;;16.90;99.90;;;;;;5025888;28;20057;-79
2022/08/01 06:45:44;;;;;;;17.55;5.50;;;16.80;99.90;;;;;;4992034;28;20041;-78
2022/08/01 06:48:10;;;;;;;19.45;4.78;;;16.80;99.90;;;;;;5006838;28;20061;-78
2022/08/01 06:50:36;;;;;;;19.45;4.97;;;16.80;99.90;;;;;;5005109;28;20046;-79
2022/08/01 06:53:03;;;;;;;20.40;5.80;;;16.80;99.90;;;;;;5024328;28;20052;-79
2022/08/01 06:55:28;;;;;;;15.73;4.72;;;16.80;99.90;;;;;;5026265;28;20103;-78
2022/08/01 06:57:57;;;;;;;20.77;5.32;;;16.80;99.90;;;;;;5008019;28;20508;-77
2022/08/01 07:00:25;;;;;;;17.58;5.10;;;16.80;99.90;;;;;;4994685;28;20531;-79
2022/08/01 07:02:56;;;;;;;21.88;5.00;;;16.80;99.90;;;;;;5006934;28;20049;-78
2022/08/01 07:05:25;;;;;;;19.35;5.32;;;16.80;99.90;;;;;;5016610;28;20056;-77
2022/08/01 07:07:51;;;;;;;22.02;5.25;;;16.80;99.90;;;;;;5012699;28;20033;-78
2022/08/01 07:10:17;;;;;;;18.48;5.88;;;16.70;99.90;;;;;;4984722;28;20056;-78
2022/08/01 07:12:43;;;;;;;20.30;5.28;;;16.70;99.90;;;;;;5006341;28;20049;-78
2022/08/01 07:15:09;;;;;;;18.63;5.10;;;16.80;99.90;;;;;;5022437;28;20404;-78
2022/08/01 07:17:40;;;;;;;19.50;4.72;;;16.70;99.90;;;;;;5009351;28;20053;-79
2022/08/01 07:20:11;;;;;;;19.38;4.75;;;16.80;99.90;;;;;;5005243;28;20049;-77
2022/08/01 07:22:38;;;;;;;20.63;4.88;;;16.70;99.90;;;;;;5024924;28;20119;-75
2022/08/01 07:25:05;;;;;;;16.55;5.15;;;16.70;99.90;;;;;;5024936;28;20034;-75
2022/08/01 07:27:32;;;;;;;21.40;5.50;;;16.80;99.90;;;;;;5023372;28;20049;-75
2022/08/01 07:29:58;;;;;;;16.50;4.47;;;16.80;99.90;;;;;;5005397;28;20046;-76
2022/08/01 07:32:24;;;;;;;17.33;4.55;;;16.80;99.90;;;;;;5012624;28;20054;-75
2022/08/01 07:34:50;;;;;;;15.38;4.85;;;16.80;99.90;;;;;;5009326;28;20098;-77
2022/08/01 07:37:16;;;;;;;16.15;5.13;;;16.80;99.90;;;;;;5013558;28;20125;-77
2022/08/01 07:39:42;;;;;;;17.08;5.18;;;16.90;99.90;;;;;;4990509;28;20038;-75
2022/08/01 07:42:08;;;;;;;15.85;4.18;;;16.90;99.90;;;;;;5021007;28;20095;-77
2022/08/01 07:44:35;;;;;;;17.50;4.78;;;17.00;99.90;;;;;;4989741;28;20049;-76
2022/08/01 07:47:04;;;;;;;16.45;4.25;;;17.00;99.90;;;;;;5015497;28;20124;-76
2022/08/01 07:49:30;;;;;;;14.77;4.37;;;17.00;99.90;;;;;;5020626;28;20527;-79
2022/08/01 07:51:56;;;;;;;15.65;3.92;;;17.00;99.90;;;;;;5014935;28;20030;-76
2022/08/01 07:54:23;;;;;;;15.60;4.45;;;17.00;99.90;;;;;;5001239;28;20053;-77
2022/08/01 07:56:50;;;;;;;14.27;4.07;;;17.10;99.90;;;;;;4989308;28;20041;-76
2022/08/01 07:59:16;;;;;;;13.82;3.58;;;17.10;99.90;;;;;;5014025;28;20559;-77
2022/08/01 08:01:51;;;;;;;13.75;3.38;;;17.20;99.90;;;;;;5022338;28;20153;-76
2022/08/01 08:04:17;;;;;;;14.63;4.32;;;17.20;99.90;;;;;;5015542;28;20041;-78
2022/08/01 08:06:44;;;;;;;17.55;4.38;;;17.30;99.90;;;;;;5012697;28;20041;-78
2022/08/01 08:09:11;;;;;;;19.95;3.60;;;17.30;99.90;;;;;;4999235;28;20443;-77
2022/08/01 08:11:37;;;;;;;20.20;4.15;;;17.30;99.90;;;;;;5015118;28;20077;-77
2022/08/01 08:14:03;;;;;;;12.20;3.70;;;17.40;99.90;;;;;;5002515;28;20041;-77
2022/08/01 08:16:28;;;;;;;14.50;3.67;;;17.40;99.90;;;;;;5019809;28;20045;-76
2022/08/01 08:18:54;;;;;;;16.58;3.67;;;17.50;99.90;;;;;;5018782;28;20051;-76
2022/08/01 08:21:20;;;;;;;16.38;3.60;;;17.50;99.90;;;;;;4998227;28;20061;-78
2022/08/01 08:26:30;;;;;;;16.55;3.58;;;17.60;99.90;;;;;;5004582;28;20435;-77
2022/08/01 08:28:56;;;;;;;15.77;3.72;;;17.70;99.90;;;;;;4996457;28;20385;-77
2022/08/01 08:31:25;;;;;;;14.52;3.45;;;17.70;99.90;;;;;;4982925;28;20050;-78
2022/08/01 08:33:51;;;;;;;15.98;4.15;;;17.80;99.90;;;;;;5017295;28;20038;-77
2022/08/01 08:36:17;;;;;;;9.90;2.50;;;17.90;99.90;;;;;;5000377;28;20048;-79
2022/08/01 08:38:43;;;;;;;13.80;3.22;;;18.10;99.90;;;;;;4995858;28;20041;-77
2022/08/01 08:41:09;;;;;;;11.77;3.55;;;18.20;99.90;;;;;;5007347;28;20052;-76
2022/08/01 08:43:35;;;;;;;10.90;3.20;;;18.40;99.90;;;;;;5010261;28;20408;-77
2022/08/01 08:46:02;;;;;;;12.40;3.40;;;18.50;99.90;;;;;;5004669;28;20555;-76
2022/08/01 08:48:29;;;;;;;12.90;3.58;;;18.70;99.90;;;;;;4985462;28;20049;-76
2022/08/01 08:50:57;;;;;;;10.80;2.63;;;18.80;99.90;;;;;;4994200;28;20053;-77
2022/08/01 08:53:23;;;;;;;10.77;2.60;;;18.90;99.90;;;;;;5015122;28;20084;-77
2022/08/01 08:55:50;;;;;;;12.05;3.10;;;19.10;99.90;;;;;;4995549;28;20037;-76
2022/08/01 08:58:37;;;;;;;12.60;2.92;;;19.10;99.90;;;;;;5017157;28;20052;-77
2022/08/01 09:01:06;;;;;;;8.50;2.50;;;19.20;99.90;;;;;;5004179;28;20053;-76
2022/08/01 09:03:33;;;;;;;12.77;3.00;;;19.10;99.90;;;;;;5020950;28;20128;-76
2022/08/01 09:05:58;;;;;;;13.30;2.95;;;19.20;99.90;;;;;;5018352;28;20124;-76
2022/08/01 09:08:24;;;;;;;10.00;2.42;;;19.30;99.90;;;;;;5022561;28;20128;-77
2022/08/01 09:10:50;;;;;;;11.45;2.80;;;19.30;99.90;;;;;;5003399;28;20132;-76
2022/08/01 09:13:16;;;;;;;12.35;2.70;;;19.30;99.90;;;;;;5018064;28;20084;-77
2022/08/01 09:15:44;;;;;;;8.63;2.33;;;19.40;99.90;;;;;;5023306;28;20049;-76
2022/08/01 09:18:44;;;;;;;10.07;2.40;;;19.40;99.90;;;;;;5031506;28;20582;-77
2022/08/01 09:21:19;;;;;;;9.45;2.88;;;19.50;99.90;;;;;;5000770;28;20116;-75
2022/08/01 09:23:49;;;;;;;10.52;2.58;;;19.50;99.90;;;;;;5019009;28;20081;-76
2022/08/01 09:26:18;;;;;;;9.97;2.20;;;19.60;99.90;;;;;;5017629;28;20624;-77
2022/08/01 09:28:47;;;;;;;9.10;2.40;;;19.70;99.90;;;;;;5026676;28;20049;-76
2022/08/01 09:31:18;;;;;;;8.63;2.08;;;19.80;99.90;;;;;;5021947;28;20038;-76
2022/08/01 09:33:53;;;;;;;11.73;2.40;;;20.00;99.90;;;;;;5018843;28;20065;-77
2022/08/01 09:36:22;;;;;;;12.75;3.05;;;20.00;99.90;;;;;;5013064;28;20045;-75
2022/08/01 09:38:49;;;;;;;9.13;2.17;;;20.10;99.90;;;;;;5018649;28;20068;-76
2022/08/01 09:41:15;;;;;;;9.52;2.13;;;20.10;99.90;;;;;;5007344;28;20211;-75
2022/08/01 09:43:49;;;;;;;8.45;2.20;;;20.10;99.90;;;;;;5014632;28;20607;-75
2022/08/01 09:46:14;;;;;;;9.07;2.67;;;20.20;99.90;;;;;;5000272;28;20124;-76
2022/08/01 09:49:01;;;;;;;8.30;2.25;;;20.10;99.90;;;;;;4997036;28;20042;-76
2022/08/01 09:51:31;;;;;;;7.65;2.35;;;20.10;99.90;;;;;;5020362;28;20460;-78
2022/08/01 09:53:57;;;;;;;;;;;20.20;99.90;;;;;;5023831;28;20046;-77
2022/08/01 09:56:26;;;;;;;11.40;2.95;;;20.30;99.90;;;;;;5021050;28;19974;-77
2022/08/01 09:58:58;;;;;;;8.48;2.28;;;20.40;99.90;;;;;;5009976;28;20046;-78
2022/08/01 10:01:24;;;;;;;10.48;2.10;;;20.40;99.90;;;;;;5011643;28;20044;-77
2022/08/01 10:04:14;;;;;;;8.50;1.80;;;20.40;99.90;;;;;;4994898;28;20034;-78
2022/08/01 10:06:43;;;;;;;7.63;2.00;;;20.60;99.90;;;;;;5009751;28;20117;-76
2022/08/01 10:09:10;;;;;;;12.95;2.35;;;20.70;99.90;;;;;;5009643;28;20065;-79
2022/08/01 10:11:38;;;;;;;6.97;1.98;;;20.70;99.90;;;;;;5015441;28;20050;-78
2022/08/01 10:14:06;;;;;;;7.72;1.50;;;20.70;99.90;;;;;;5017068;28;20042;-77
2022/08/01 10:16:35;;;;;;;6.93;1.48;;;20.70;99.90;;;;;;5012727;28;20111;-78
2022/08/01 10:19:05;;;;;;;7.03;1.83;;;20.70;99.90;;;;;;5015717;28;20044;-76
2022/08/01 10:21:33;;;;;;;7.28;1.73;;;20.70;99.90;;;;;;5014986;28;20045;-78
2022/08/01 10:24:04;;;;;;;8.90;2.03;;;20.80;99.90;;;;;;5012822;28;20107;-78
2022/08/01 10:26:33;;;;;;;8.55;1.90;;;20.90;99.90;;;;;;4987789;28;20056;-78
2022/08/01 10:29:00;;;;;;;6.45;1.60;;;21.00;99.90;;;;;;5018989;28;20042;-76
2022/08/01 10:31:27;;;;;;;8.38;1.25;;;21.10;99.90;;;;;;5015349;28;20088;-76
2022/08/01 10:33:58;;;;;;;10.52;2.60;;;21.10;99.90;;;;;;5004360;28;20056;-79
2022/08/01 10:36:24;;;;;;;7.03;1.70;;;20.90;99.90;;;;;;5010279;28;20629;-79
2022/08/01 10:38:51;;;;;;;7.90;1.50;;;20.90;99.90;;;;;;5016627;28;20037;-78
2022/08/01 10:41:19;;;;;;;6.78;1.70;;;21.00;99.90;;;;;;4987777;28;20075;-79
2022/08/01 10:43:45;;;;;;;7.18;1.58;;;21.00;99.90;;;;;;5013407;28;20133;-78
2022/08/01 10:46:11;;;;;;;5.38;1.65;;;20.90;99.90;;;;;;5013287;28;20557;-77
2022/08/01 10:48:42;;;;;;;8.55;2.20;;;20.90;99.90;;;;;;5013677;28;20038;-76
2022/08/01 10:51:09;;;;;;;9.32;1.70;;;21.00;99.90;;;;;;5007659;28;20603;-78
2022/08/01 10:53:34;;;;;;;9.00;1.60;;;20.90;99.90;;;;;;5003848;28;20041;-77
2022/08/01 10:56:03;;;;;;;8.00;1.58;;;20.90;99.90;;;;;;5002940;28;20038;-76
2022/08/01 10:58:36;;;;;;;12.32;2.17;;;20.80;99.90;;;;;;5014730;28;20084;-76
2022/08/01 11:01:20;;;;;;;6.75;1.67;;;20.70;99.90;;;;;;5018972;28;20092;-76
2022/08/01 11:04:31;;;;;;;7.13;1.60;;;20.60;99.80;;;;;;5019370;28;20493;-76
2022/08/01 11:07:11;;;;;;;7.50;2.28;;;20.60;99.90;;;;;;4950739;28;20719;-77
2022/08/01 11:09:47;;;;;;;8.35;1.63;;;20.60;99.90;;;;;;5014564;28;20508;-77
2022/08/01 11:12:13;;;;;;;6.65;1.75;;;20.50;99.90;;;;;;5006662;28;20049;-77
2022/08/01 11:14:58;;;;;;;6.40;1.67;;;20.60;99.90;;;;;;4997357;28;20424;-78
2022/08/01 11:17:51;;;;;;;4.95;1.60;;;20.70;99.90;;;;;;5026415;28;20049;-77
2022/08/01 11:20:25;;;;;;;7.15;1.70;;;20.90;99.90;;;;;;5012407;28;20060;-77
2022/08/01 11:23:06;;;;;;;7.18;1.80;;;21.00;99.90;;;;;;5004202;28;20057;-77
2022/08/01 11:25:48;;;;;;;9.85;1.67;;;21.10;99.90;;;;;;5014691;28;20049;-77
2022/08/01 11:28:14;;;;;;;8.60;2.00;;;21.30;99.90;;;;;;5013860;28;20045;-76
2022/08/01 11:30:40;;;;;;;8.80;1.92;;;21.40;99.80;;;;;;4996495;28;20052;-77
2022/08/01 11:33:07;;;;;;;7.35;2.15;;;21.50;99.50;;;;;;5012594;28;20184;-77
2022/08/01 11:35:35;;;;;;;7.82;1.50;;;21.60;99.90;;;;;;5009417;28;20068;-76
2022/08/01 11:38:24;;;;;;;7.63;1.90;;;21.70;99.30;;;;;;5000710;28;20042;-77
2022/08/01 11:41:20;;;;;;;6.53;1.38;;;21.70;99.20;;;;;;5033190;28;20052;-76
2022/08/01 11:44:04;;;;;;;7.82;2.13;;;21.60;97.40;;;;;;5015185;28;20053;-76
2022/08/01 11:46:59;;;;;;;6.13;1.52;;;21.60;97.30;;;;;;5013656;28;20045;-76
2022/08/01 11:49:37;;;;;;;6.03;1.50;;;21.60;99.90;;;;;;5008254;28;20057;-78
2022/08/01 11:52:07;;;;;;;7.70;1.75;;;21.70;98.50;;;;;;5016862;28;20050;-76
2022/08/01 11:54:42;;;;;;;9.18;1.92;;;21.70;99.90;;;;;;5036741;28;20137;-76
2022/08/01 11:57:14;;;;;;;7.43;1.80;;;21.80;99.90;;;;;;4995121;28;20127;-77
2022/08/01 12:00:09;;;;;;;7.55;2.03;;;21.90;99.90;;;;;;4998679;28;20042;-77
2022/08/01 12:02:35;;;;;;;6.57;1.38;;;21.80;99.90;;;;;;5000746;28;20089;-76
2022/08/01 12:05:02;;;;;;;7.65;1.42;;;21.60;99.90;;;;;;5014797;28;20046;-76
2022/08/01 12:07:30;;;;;;;7.18;1.50;;;21.50;98.10;;;;;;4999391;28;20089;-76
2022/08/01 12:10:07;;;;;;;6.43;1.30;;;21.40;97.00;;;;;;5015969;28;20038;-76
2022/08/01 12:12:36;;;;;;;7.30;1.90;;;21.40;96.70;;;;;;4999152;28;20623;-76
2022/08/01 12:15:05;;;;;;;8.82;1.70;;;21.40;95.10;;;;;;5014627;28;20054;-76
2022/08/01 12:17:36;;;;;;;7.38;1.80;;;21.40;97.70;;;;;;4995934;28;20044;-76
2022/08/01 12:20:05;;;;;;;7.43;1.77;;;21.50;96.10;;;;;;5016365;28;20049;-76
2022/08/01 12:22:31;;;;;;;6.13;1.58;;;21.50;96.50;;;;;;4999883;28;20056;-76
2022/08/01 12:25:06;;;;;;;7.15;1.30;;;21.50;97.60;;;;;;5015213;28;20099;-76
2022/08/01 12:27:33;;;;;;;7.22;1.60;;;21.40;97.10;;;;;;5010368;28;20041;-76
2022/08/01 12:29:59;;;;;;;6.82;1.45;;;21.30;96.20;;;;;;4999984;28;20045;-76
2022/08/01 12:32:27;;;;;;;7.13;1.40;;;21.30;97.90;;;;;;5001324;28;20042;-77
2022/08/01 12:34:55;;;;;;;6.15;1.52;;;21.40;98.50;;;;;;4997056;28;20041;-76
2022/08/01 12:37:26;;;;;;;7.35;1.60;;;21.60;97.70;;;;;;5003065;28;20061;-76
2022/08/01 12:39:53;;;;;;;9.32;1.92;;;21.70;96.40;;;;;;5014509;28;20172;-76
2022/08/01 12:42:19;;;;;;;5.28;1.98;;;21.70;96.00;;;;;;4998361;28;20655;-75
2022/08/01 12:44:48;;;;;;;8.73;2.20;;;21.60;92.60;;;;;;5013091;28;21055;-77
2022/08/01 12:47:15;;;;;;;7.88;1.38;;;21.30;94.60;;;;;;5013417;28;20042;-76
2022/08/01 12:49:43;;;;;;;6.80;1.40;;;21.30;96.60;;;;;;4993909;28;20080;-76
2022/08/01 12:52:10;;;;;;;8.40;1.30;;;21.50;97.90;;;;;;5003668;28;20053;-76
2022/08/01 12:55:02;;;;;;;6.85;1.20;;;21.70;94.90;;;;;;5012552;28;20056;-77